createdAt,value
2019-02-18T00:00:39.943Z,0.00
2019-02-18T00:01:39.898Z,0.00
2019-02-18T00:02:39.896Z,0.00
2019-02-18T00:03:39.874Z,0.00
2019-02-18T00:04:39.863Z,0.00
2019-02-18T00:05:39.877Z,0.00
2019-02-18T00:06:39.840Z,0.00
2019-02-18T00:07:39.829Z,0.00
2019-02-18T00:08:39.818Z,0.00
2019-02-18T00:09:39.812Z,0.00
2019-02-18T00:10:39.853Z,0.00
2019-02-18T00:11:39.786Z,0.00
2019-02-18T00:12:39.778Z,0.00
2019-02-18T00:13:39.764Z,0.00
2019-02-18T00:14:39.752Z,0.00
2019-02-18T00:15:39.769Z,0.00
2019-02-18T00:16:39.735Z,0.00
2019-02-18T00:17:39.720Z,0.00
2019-02-18T00:18:39.715Z,0.00
2019-02-18T00:19:39.700Z,0.00
2019-02-18T00:20:39.712Z,0.00
2019-02-18T00:21:39.679Z,0.00
2019-02-18T00:22:39.665Z,0.00
2019-02-18T00:23:39.654Z,0.00
2019-02-18T00:24:39.647Z,0.00
2019-02-18T00:25:39.662Z,0.00
2019-02-18T00:26:39.622Z,0.00
2019-02-18T00:27:39.610Z,0.00
2019-02-18T00:28:39.609Z,0.00
2019-02-18T00:29:39.595Z,0.00
2019-02-18T00:30:39.612Z,0.00
2019-02-18T00:31:39.571Z,0.00
2019-02-18T00:32:39.556Z,0.00
2019-02-18T00:33:39.546Z,0.00
2019-02-18T00:34:39.534Z,0.00
2019-02-18T00:35:39.545Z,0.00
2019-02-18T00:36:39.513Z,0.00
2019-02-18T00:37:39.503Z,0.00
2019-02-18T00:38:39.493Z,0.00
2019-02-18T00:39:39.484Z,0.00
2019-02-18T00:40:39.492Z,0.00
2019-02-18T00:41:39.460Z,0.00
2019-02-18T00:42:39.447Z,0.00
2019-02-18T00:43:39.436Z,0.00
2019-02-18T00:44:39.425Z,0.00
2019-02-18T00:45:39.446Z,0.00
2019-02-18T00:46:39.405Z,0.00
2019-02-18T00:47:39.394Z,0.00
2019-02-18T00:48:39.382Z,0.00
2019-02-18T00:49:39.369Z,0.00
2019-02-18T00:50:39.359Z,0.00
2019-02-18T00:51:39.449Z,0.00
2019-02-18T00:52:39.340Z,0.00
2019-02-18T00:53:39.330Z,0.00
2019-02-18T00:54:39.315Z,0.00
2019-02-18T00:55:39.304Z,0.00
2019-02-18T00:56:39.318Z,0.00
2019-02-18T00:57:39.282Z,0.00
2019-02-18T00:58:39.275Z,0.00
2019-02-18T00:59:39.258Z,0.00
2019-02-18T01:00:39.249Z,0.00
2019-02-18T01:01:39.261Z,0.00
2019-02-18T01:02:39.229Z,0.00
2019-02-18T01:03:39.216Z,0.00
2019-02-18T01:04:39.212Z,0.00
2019-02-18T01:05:39.219Z,0.00
2019-02-18T01:06:39.206Z,0.00
2019-02-18T01:07:39.173Z,0.00
2019-02-18T01:08:39.161Z,0.00
2019-02-18T01:09:39.151Z,0.00
2019-02-18T01:10:39.138Z,0.00
2019-02-18T01:11:39.153Z,0.00
2019-02-18T01:12:39.121Z,0.00
2019-02-18T01:13:39.107Z,0.00
2019-02-18T01:14:39.096Z,0.00
2019-02-18T01:15:39.085Z,0.00
2019-02-18T01:16:39.323Z,0.00
2019-02-18T01:17:39.062Z,0.00
2019-02-18T01:18:39.065Z,0.00
2019-02-18T01:19:39.041Z,0.00
2019-02-18T01:20:39.031Z,0.00
2019-02-18T01:21:39.019Z,0.00
2019-02-18T01:22:39.032Z,0.00
2019-02-18T01:23:38.997Z,0.00
2019-02-18T01:24:38.985Z,0.00
2019-02-18T01:25:38.975Z,0.00
2019-02-18T01:26:38.965Z,0.00
2019-02-18T01:27:38.977Z,0.00
2019-02-18T01:28:38.944Z,0.00
2019-02-18T01:29:38.931Z,0.00
2019-02-18T01:30:38.924Z,0.00
2019-02-18T01:31:38.911Z,0.00
2019-02-18T01:32:38.933Z,0.00
2019-02-18T01:33:38.896Z,0.00
2019-02-18T01:34:38.882Z,0.00
2019-02-18T01:35:38.869Z,0.00
2019-02-18T01:36:38.863Z,0.00
2019-02-18T01:37:45.596Z,0.00
2019-02-18T01:38:38.836Z,0.00
2019-02-18T01:39:38.822Z,0.00
2019-02-18T01:40:38.811Z,0.00
2019-02-18T01:41:38.798Z,0.00
2019-02-18T01:42:38.813Z,0.00
2019-02-18T01:43:38.779Z,0.00
2019-02-18T01:44:38.769Z,0.00
2019-02-18T01:45:38.761Z,0.00
2019-02-18T01:46:38.746Z,0.00
2019-02-18T01:47:38.756Z,0.00
2019-02-18T01:48:38.724Z,0.00
2019-02-18T01:49:38.712Z,0.00
2019-02-18T01:50:38.700Z,0.00
2019-02-18T01:51:38.690Z,0.00
2019-02-18T01:52:38.714Z,0.00
2019-02-18T01:53:38.666Z,0.00
2019-02-18T01:54:38.656Z,0.00
2019-02-18T01:55:38.645Z,0.00
2019-02-18T01:56:38.633Z,0.00
2019-02-18T01:57:38.624Z,0.00
2019-02-18T01:58:38.637Z,0.00
2019-02-18T01:59:38.715Z,0.00
2019-02-18T02:00:38.593Z,0.00
2019-02-18T02:01:38.579Z,0.00
2019-02-18T02:02:38.576Z,0.00
2019-02-18T02:03:38.586Z,0.00
2019-02-18T02:04:38.547Z,0.00
2019-02-18T02:05:38.535Z,0.00
2019-02-18T02:06:38.524Z,0.00
2019-02-18T02:07:38.514Z,0.00
2019-02-18T02:08:38.528Z,0.00
2019-02-18T02:09:38.505Z,0.00
2019-02-18T02:10:38.483Z,0.00
2019-02-18T02:11:38.469Z,0.00
2019-02-18T02:12:38.459Z,0.00
2019-02-18T02:13:38.471Z,0.00
2019-02-18T02:14:38.439Z,0.00
2019-02-18T02:15:38.427Z,0.00
2019-02-18T02:16:38.417Z,0.00
2019-02-18T02:17:38.405Z,0.00
2019-02-18T02:18:38.424Z,0.00
2019-02-18T02:19:38.384Z,0.00
2019-02-18T02:20:38.373Z,0.00
2019-02-18T02:21:38.361Z,0.00
2019-02-18T02:22:38.368Z,0.00
2019-02-18T02:23:38.363Z,0.00
2019-02-18T02:24:38.329Z,0.00
2019-02-18T02:25:38.316Z,0.00
2019-02-18T02:26:38.311Z,0.00
2019-02-18T02:27:38.294Z,0.00
2019-02-18T02:28:38.319Z,0.00
2019-02-18T02:29:38.278Z,0.00
2019-02-18T02:30:38.262Z,0.00
2019-02-18T02:31:38.263Z,0.00
2019-02-18T02:32:38.240Z,0.00
2019-02-18T02:33:38.254Z,0.00
2019-02-18T02:34:38.218Z,0.00
2019-02-18T02:35:38.208Z,0.00
2019-02-18T02:36:38.204Z,0.00
2019-02-18T02:37:38.186Z,0.00
2019-02-18T02:38:38.200Z,0.00
2019-02-18T02:39:38.169Z,0.00
2019-02-18T02:40:38.165Z,0.00
2019-02-18T02:41:38.144Z,0.00
2019-02-18T02:42:38.131Z,0.00
2019-02-18T02:43:38.145Z,0.00
2019-02-18T02:44:38.108Z,0.00
2019-02-18T02:45:38.098Z,0.00
2019-02-18T02:46:38.087Z,0.00
2019-02-18T02:47:38.079Z,0.00
2019-02-18T02:48:38.087Z,0.00
2019-02-18T02:49:38.059Z,0.00
2019-02-18T02:50:38.047Z,0.00
2019-02-18T02:51:38.032Z,0.00
2019-02-18T02:52:38.024Z,0.00
2019-02-18T02:53:38.060Z,0.00
2019-02-18T02:54:38.003Z,0.00
2019-02-18T02:55:37.988Z,0.00
2019-02-18T02:56:37.979Z,0.00
2019-02-18T02:57:37.966Z,0.00
2019-02-18T02:58:37.955Z,0.00
2019-02-18T02:59:37.967Z,0.00
2019-02-18T03:00:37.933Z,0.00
2019-02-18T03:01:37.925Z,0.00
2019-02-18T03:02:37.914Z,0.00
2019-02-18T03:03:37.901Z,0.00
2019-02-18T03:04:37.911Z,0.00
2019-02-18T03:05:37.881Z,0.00
2019-02-18T03:06:37.884Z,0.00
2019-02-18T03:07:37.861Z,0.00
2019-02-18T03:08:37.903Z,0.00
2019-02-18T03:09:37.861Z,0.00
2019-02-18T03:10:37.825Z,0.00
2019-02-18T03:11:37.820Z,0.00
2019-02-18T03:12:37.802Z,0.00
2019-02-18T03:13:37.795Z,0.00
2019-02-18T03:14:37.804Z,0.00
2019-02-18T03:15:37.770Z,0.00
2019-02-18T03:16:37.757Z,0.00
2019-02-18T03:17:37.746Z,0.00
2019-02-18T03:18:37.738Z,0.00
2019-02-18T03:19:37.747Z,0.00
2019-02-18T03:20:37.721Z,0.00
2019-02-18T03:21:37.707Z,0.00
2019-02-18T03:22:37.745Z,0.00
2019-02-18T03:23:37.681Z,0.00
2019-02-18T03:24:37.697Z,0.00
2019-02-18T03:25:37.661Z,0.00
2019-02-18T03:26:37.657Z,0.00
2019-02-18T03:27:37.639Z,0.00
2019-02-18T03:28:37.625Z,0.00
2019-02-18T03:29:37.855Z,0.00
2019-02-18T03:30:37.613Z,0.00
2019-02-18T03:31:37.613Z,0.00
2019-02-18T03:32:37.585Z,0.00
2019-02-18T03:33:37.573Z,0.00
2019-02-18T03:34:37.567Z,0.00
2019-02-18T03:35:37.573Z,0.00
2019-02-18T03:36:37.541Z,0.00
2019-02-18T03:37:37.529Z,0.00
2019-02-18T03:38:37.519Z,0.00
2019-02-18T03:39:37.514Z,0.00
2019-02-18T03:40:37.520Z,0.00
2019-02-18T03:41:37.487Z,0.00
2019-02-18T03:42:37.477Z,0.00
2019-02-18T03:43:37.462Z,0.00
2019-02-18T03:44:37.454Z,0.00
2019-02-18T03:45:37.468Z,0.00
2019-02-18T03:46:37.431Z,0.00
2019-02-18T03:47:37.423Z,0.00
2019-02-18T03:48:37.420Z,0.00
2019-02-18T03:49:37.448Z,0.00
2019-02-18T03:50:37.420Z,0.00
2019-02-18T03:51:37.376Z,0.00
2019-02-18T03:52:37.366Z,0.00
2019-02-18T03:53:37.352Z,0.00
2019-02-18T03:54:37.345Z,0.00
2019-02-18T03:55:37.366Z,0.00
2019-02-18T03:56:37.323Z,0.00
2019-02-18T03:57:37.314Z,0.00
2019-02-18T03:58:37.302Z,0.00
2019-02-18T03:59:37.328Z,0.00
2019-02-18T04:00:37.300Z,0.00
2019-02-18T04:01:37.267Z,0.00
2019-02-18T04:02:37.256Z,0.00
2019-02-18T04:03:37.243Z,0.00
2019-02-18T04:04:37.290Z,0.00
2019-02-18T04:05:37.247Z,0.00
2019-02-18T04:06:37.216Z,0.00
2019-02-18T04:07:37.208Z,0.00
2019-02-18T04:08:42.969Z,0.00
2019-02-18T04:09:37.182Z,0.00
2019-02-18T04:10:37.206Z,0.00
2019-02-18T04:11:37.159Z,0.00
2019-02-18T04:12:37.147Z,0.00
2019-02-18T04:13:37.140Z,0.00
2019-02-18T04:14:37.123Z,0.00
2019-02-18T04:15:37.159Z,0.00
2019-02-18T04:16:37.102Z,0.00
2019-02-18T04:17:37.090Z,0.00
2019-02-18T04:18:37.079Z,0.00
2019-02-18T04:19:37.092Z,0.00
2019-02-18T04:20:37.058Z,0.00
2019-02-18T04:21:37.071Z,0.00
2019-02-18T04:22:37.035Z,0.00
2019-02-18T04:23:37.032Z,0.00
2019-02-18T04:24:37.012Z,0.00
2019-02-18T04:25:37.010Z,0.00
2019-02-18T04:26:37.041Z,0.00
2019-02-18T04:27:36.985Z,0.00
2019-02-18T04:28:36.971Z,0.00
2019-02-18T04:29:36.964Z,0.00
2019-02-18T04:30:36.952Z,0.00
2019-02-18T04:31:36.964Z,0.00
2019-02-18T04:32:36.925Z,0.00
2019-02-18T04:33:36.920Z,0.00
2019-02-18T04:34:36.915Z,0.00
2019-02-18T04:35:36.891Z,0.00
2019-02-18T04:36:36.907Z,0.00
2019-02-18T04:37:36.877Z,0.00
2019-02-18T04:38:36.863Z,0.00
2019-02-18T04:39:36.851Z,0.00
2019-02-18T04:40:36.837Z,0.00
2019-02-18T04:41:36.857Z,0.00
2019-02-18T04:42:36.829Z,0.00
2019-02-18T04:43:36.804Z,0.00
2019-02-18T04:44:36.808Z,0.00
2019-02-18T04:45:36.783Z,0.00
2019-02-18T04:46:36.805Z,0.00
2019-02-18T04:47:36.763Z,0.00
2019-02-18T04:48:36.749Z,0.00
2019-02-18T04:49:36.739Z,0.00
2019-02-18T04:50:36.729Z,0.00
2019-02-18T04:51:36.768Z,0.00
2019-02-18T04:52:36.717Z,0.00
2019-02-18T04:53:36.696Z,0.00
2019-02-18T04:54:36.686Z,0.00
2019-02-18T04:55:36.674Z,0.00
2019-02-18T04:56:36.662Z,0.00
2019-02-18T04:57:36.676Z,0.00
2019-02-18T04:58:36.638Z,0.00
2019-02-18T04:59:36.645Z,0.00
2019-02-18T05:00:36.619Z,0.00
2019-02-18T05:01:36.675Z,0.00
2019-02-18T05:02:36.620Z,0.00
2019-02-18T05:03:36.588Z,0.00
2019-02-18T05:04:36.575Z,0.00
2019-02-18T05:05:36.565Z,0.00
2019-02-18T05:06:36.557Z,0.00
2019-02-18T05:07:36.562Z,0.00
2019-02-18T05:08:36.545Z,0.00
2019-02-18T05:09:36.517Z,0.00
2019-02-18T05:10:36.508Z,0.00
2019-02-18T05:11:36.497Z,0.00
2019-02-18T05:12:36.508Z,0.00
2019-02-18T05:13:36.473Z,0.00
2019-02-18T05:14:36.463Z,0.00
2019-02-18T05:15:36.454Z,0.00
2019-02-18T05:16:36.441Z,0.00
2019-02-18T05:17:36.459Z,0.00
2019-02-18T05:18:36.422Z,0.00
2019-02-18T05:19:36.422Z,0.00
2019-02-18T05:20:36.396Z,0.00
2019-02-18T05:21:36.389Z,0.00
2019-02-18T05:22:36.406Z,0.00
2019-02-18T05:23:36.364Z,0.00
2019-02-18T05:24:36.354Z,0.00
2019-02-18T05:25:36.340Z,0.00
2019-02-18T05:26:36.331Z,0.00
2019-02-18T05:27:36.344Z,0.00
2019-02-18T05:28:36.313Z,0.00
2019-02-18T05:29:36.299Z,0.00
2019-02-18T05:30:36.290Z,0.00
2019-02-18T05:31:36.281Z,0.00
2019-02-18T05:32:36.289Z,0.00
2019-02-18T05:33:36.253Z,0.00
2019-02-18T05:34:36.244Z,0.00
2019-02-18T05:35:36.231Z,0.00
2019-02-18T05:36:36.289Z,0.00
2019-02-18T05:37:36.235Z,0.00
2019-02-18T05:38:36.206Z,0.00
2019-02-18T05:39:36.191Z,0.00
2019-02-18T05:40:36.177Z,0.00
2019-02-18T05:41:36.177Z,0.00
2019-02-18T05:42:36.205Z,0.00
2019-02-18T05:43:36.143Z,0.00
2019-02-18T05:44:36.138Z,0.00
2019-02-18T05:45:36.124Z,0.00
2019-02-18T05:46:36.110Z,0.00
2019-02-18T05:47:36.124Z,0.00
2019-02-18T05:48:36.090Z,0.00
2019-02-18T05:49:36.078Z,0.00
2019-02-18T05:50:36.069Z,0.00
2019-02-18T05:51:36.056Z,0.00
2019-02-18T05:52:36.071Z,0.00
2019-02-18T05:53:36.033Z,0.00
2019-02-18T05:54:36.088Z,0.00
2019-02-18T05:55:36.015Z,0.00
2019-02-18T05:56:36.008Z,0.00
2019-02-18T05:57:36.016Z,0.00
2019-02-18T05:58:35.981Z,0.00
2019-02-18T05:59:35.970Z,0.00
2019-02-18T06:00:35.959Z,0.00
2019-02-18T06:01:35.947Z,0.00
2019-02-18T06:02:35.962Z,0.00
2019-02-18T06:03:35.925Z,0.00
2019-02-18T06:04:35.914Z,0.00
2019-02-18T06:05:35.904Z,0.00
2019-02-18T06:06:35.962Z,0.00
2019-02-18T06:07:35.904Z,0.00
2019-02-18T06:08:35.871Z,0.00
2019-02-18T06:09:35.862Z,0.00
2019-02-18T06:10:35.848Z,0.00
2019-02-18T06:11:35.836Z,0.00
2019-02-18T06:12:35.863Z,0.00
2019-02-18T06:13:35.815Z,0.00
2019-02-18T06:14:35.804Z,0.00
2019-02-18T06:15:35.794Z,0.00
2019-02-18T06:16:35.782Z,0.00
2019-02-18T06:17:35.777Z,0.00
2019-02-18T06:18:35.791Z,0.00
2019-02-18T06:19:35.752Z,0.00
2019-02-18T06:20:35.737Z,0.00
2019-02-18T06:21:35.729Z,0.00
2019-02-18T06:22:38.377Z,0.00
2019-02-18T06:23:35.728Z,0.00
2019-02-18T06:24:35.693Z,0.00
2019-02-18T06:25:35.683Z,0.00
2019-02-18T06:26:35.677Z,0.00
2019-02-18T06:27:35.661Z,0.00
2019-02-18T06:28:35.677Z,0.00
2019-02-18T06:29:35.647Z,0.00
2019-02-18T06:30:35.633Z,0.00
2019-02-18T06:31:35.620Z,0.00
2019-02-18T06:32:35.606Z,0.00
2019-02-18T06:33:35.619Z,0.00
2019-02-18T06:34:35.586Z,0.00
2019-02-18T06:35:35.571Z,0.00
2019-02-18T06:36:35.563Z,0.00
2019-02-18T06:37:35.552Z,0.00
2019-02-18T06:38:35.568Z,0.00
2019-02-18T06:39:41.324Z,0.00
2019-02-18T06:40:35.521Z,0.00
2019-02-18T06:41:35.511Z,0.00
2019-02-18T06:42:35.501Z,0.00
2019-02-18T06:43:35.509Z,0.00
2019-02-18T06:44:35.473Z,0.00
2019-02-18T06:45:35.462Z,0.00
2019-02-18T06:46:35.450Z,0.00
2019-02-18T06:47:35.461Z,0.00
2019-02-18T06:48:35.456Z,0.00
2019-02-18T06:49:35.423Z,0.00
2019-02-18T06:50:35.408Z,0.00
2019-02-18T06:51:35.401Z,0.00
2019-02-18T06:52:35.390Z,0.00
2019-02-18T06:53:35.402Z,0.00
2019-02-18T06:54:35.365Z,0.00
2019-02-18T06:55:35.359Z,0.00
2019-02-18T06:56:35.342Z,0.00
2019-02-18T06:57:35.435Z,0.00
2019-02-18T06:58:35.359Z,0.00
2019-02-18T06:59:35.314Z,0.00
2019-02-18T07:00:35.304Z,0.00
2019-02-18T07:01:35.286Z,0.00
2019-02-18T07:02:35.276Z,0.00
2019-02-18T07:03:35.266Z,0.00
2019-02-18T07:04:35.276Z,0.00
2019-02-18T07:05:35.275Z,0.00
2019-02-18T07:06:35.230Z,0.00
2019-02-18T07:07:35.223Z,0.00
2019-02-18T07:08:35.212Z,0.00
2019-02-18T07:09:35.221Z,0.00
2019-02-18T07:10:35.187Z,0.00
2019-02-18T07:11:35.188Z,0.00
2019-02-18T07:12:35.166Z,0.00
2019-02-18T07:13:35.154Z,0.00
2019-02-18T07:14:35.322Z,0.00
2019-02-18T07:15:35.142Z,0.00
2019-02-18T07:16:35.127Z,0.00
2019-02-18T07:17:35.133Z,0.00
2019-02-18T07:18:35.101Z,0.00
2019-02-18T07:19:35.130Z,0.00
2019-02-18T07:20:35.082Z,0.00
2019-02-18T07:21:35.075Z,0.00
2019-02-18T07:22:35.056Z,0.00
2019-02-18T07:23:35.044Z,0.00
2019-02-18T07:24:35.057Z,0.00
2019-02-18T07:25:35.023Z,0.00
2019-02-18T07:26:35.014Z,0.00
2019-02-18T07:27:35.003Z,0.00
2019-02-18T07:28:34.992Z,0.00
2019-02-18T07:29:35.005Z,0.00
2019-02-18T07:30:34.986Z,0.00
2019-02-18T07:31:34.957Z,0.00
2019-02-18T07:32:34.949Z,0.00
2019-02-18T07:33:34.937Z,0.00
2019-02-18T07:34:34.965Z,0.00
2019-02-18T07:35:34.911Z,0.00
2019-02-18T07:36:35.185Z,0.00
2019-02-18T07:37:34.892Z,0.00
2019-02-18T07:38:34.881Z,5.62
2019-02-18T07:39:34.872Z,5.62
2019-02-18T07:40:34.882Z,5.62
2019-02-18T07:41:34.849Z,5.62
2019-02-18T07:42:34.836Z,5.62
2019-02-18T07:43:34.852Z,5.62
2019-02-18T07:44:34.813Z,5.62
2019-02-18T07:45:34.825Z,5.62
2019-02-18T07:46:34.910Z,5.62
2019-02-18T07:47:34.787Z,5.62
2019-02-18T07:48:36.727Z,5.62
2019-02-18T07:49:34.757Z,5.62
2019-02-18T07:50:34.773Z,5.62
2019-02-18T07:51:34.740Z,5.62
2019-02-18T07:52:34.726Z,5.62
2019-02-18T07:53:34.718Z,5.62
2019-02-18T07:54:34.705Z,5.62
2019-02-18T07:55:34.825Z,11.25
2019-02-18T07:56:34.685Z,11.25
2019-02-18T07:57:34.670Z,11.25
2019-02-18T07:58:34.661Z,11.25
2019-02-18T07:59:34.653Z,11.25
2019-02-18T08:00:34.719Z,11.25
2019-02-18T08:01:34.628Z,11.25
2019-02-18T08:02:34.616Z,11.25
2019-02-18T08:03:34.605Z,11.25
2019-02-18T08:04:34.597Z,11.25
2019-02-18T08:05:34.605Z,11.25
2019-02-18T08:06:34.575Z,16.88
2019-02-18T08:07:34.569Z,16.88
2019-02-18T08:08:34.550Z,16.88
2019-02-18T08:09:34.542Z,16.88
2019-02-18T08:10:34.552Z,16.88
2019-02-18T08:11:34.518Z,16.88
2019-02-18T08:12:34.507Z,16.88
2019-02-18T08:13:34.500Z,22.50
2019-02-18T08:14:34.486Z,22.50
2019-02-18T08:15:34.498Z,22.50
2019-02-18T08:16:34.463Z,28.12
2019-02-18T08:17:34.487Z,28.12
2019-02-18T08:18:34.444Z,28.12
2019-02-18T08:19:34.430Z,28.12
2019-02-18T08:20:34.456Z,33.75
2019-02-18T08:21:34.408Z,33.75
2019-02-18T08:22:34.404Z,33.75
2019-02-18T08:23:34.385Z,33.75
2019-02-18T08:24:34.375Z,39.38
2019-02-18T08:25:34.415Z,39.38
2019-02-18T08:26:34.381Z,39.38
2019-02-18T08:27:34.342Z,45.00
2019-02-18T08:28:34.333Z,45.00
2019-02-18T08:29:34.320Z,45.00
2019-02-18T08:30:34.312Z,45.00
2019-02-18T08:31:34.321Z,50.62
2019-02-18T08:32:34.290Z,50.62
2019-02-18T08:33:34.276Z,50.62
2019-02-18T08:34:34.269Z,56.25
2019-02-18T08:35:34.258Z,56.25
2019-02-18T08:36:34.279Z,56.25
2019-02-18T08:37:34.234Z,61.88
2019-02-18T08:38:34.257Z,61.88
2019-02-18T08:39:34.209Z,67.50
2019-02-18T08:40:34.198Z,67.50
2019-02-18T08:41:34.293Z,67.50
2019-02-18T08:42:34.347Z,67.50
2019-02-18T08:43:34.167Z,67.50
2019-02-18T08:44:34.179Z,67.50
2019-02-18T08:45:34.144Z,67.50
2019-02-18T08:46:34.158Z,73.12
2019-02-18T08:47:34.125Z,73.12
2019-02-18T08:48:34.115Z,73.12
2019-02-18T08:49:34.106Z,78.75
2019-02-18T08:50:34.091Z,78.75
2019-02-18T08:51:34.100Z,78.75
2019-02-18T08:52:34.067Z,84.38
2019-02-18T08:53:34.053Z,84.38
2019-02-18T08:54:34.047Z,90.00
2019-02-18T08:55:34.032Z,84.38
2019-02-18T08:56:34.046Z,90.00
2019-02-18T08:57:34.009Z,95.62
2019-02-18T08:58:33.999Z,73.12
2019-02-18T08:59:33.986Z,78.75
2019-02-18T09:00:33.974Z,84.38
2019-02-18T09:01:33.986Z,90.00
2019-02-18T09:02:33.962Z,90.00
2019-02-18T09:03:33.945Z,95.62
2019-02-18T09:04:33.938Z,101.25
2019-02-18T09:05:33.954Z,101.25
2019-02-18T09:06:33.935Z,135.00
2019-02-18T09:07:33.902Z,140.62
2019-02-18T09:08:33.889Z,140.62
2019-02-18T09:09:33.878Z,146.25
2019-02-18T09:10:34.223Z,151.88
2019-02-18T09:11:33.887Z,151.88
2019-02-18T09:12:33.844Z,157.50
2019-02-18T09:13:33.844Z,157.50
2019-02-18T09:14:33.823Z,157.50
2019-02-18T09:15:33.817Z,157.50
2019-02-18T09:16:33.835Z,157.50
2019-02-18T09:17:33.788Z,163.12
2019-02-18T09:18:33.779Z,163.12
2019-02-18T09:19:33.765Z,163.12
2019-02-18T09:20:33.751Z,163.12
2019-02-18T09:21:33.744Z,168.75
2019-02-18T09:22:33.761Z,168.75
2019-02-18T09:23:33.717Z,168.75
2019-02-18T09:24:33.708Z,168.75
2019-02-18T09:25:33.700Z,168.75
2019-02-18T09:26:33.689Z,168.75
2019-02-18T09:27:33.700Z,168.75
2019-02-18T09:28:33.665Z,168.75
2019-02-18T09:29:33.679Z,168.75
2019-02-18T09:30:33.641Z,168.75
2019-02-18T09:31:33.629Z,168.75
2019-02-18T09:32:33.642Z,168.75
2019-02-18T09:33:33.607Z,174.38
2019-02-18T09:34:33.596Z,174.38
2019-02-18T09:35:33.587Z,174.38
2019-02-18T09:36:33.574Z,174.38
2019-02-18T09:37:33.586Z,174.38
2019-02-18T09:38:33.550Z,174.38
2019-02-18T09:39:33.540Z,174.38
2019-02-18T09:40:43.935Z,174.38
2019-02-18T09:41:34.522Z,174.38
2019-02-18T09:42:33.536Z,174.38
2019-02-18T09:43:33.514Z,180.00
2019-02-18T09:44:33.495Z,180.00
2019-02-18T09:45:33.481Z,191.25
2019-02-18T09:46:33.463Z,185.62
2019-02-18T09:47:33.490Z,213.75
2019-02-18T09:48:33.447Z,258.75
2019-02-18T09:49:33.456Z,303.75
2019-02-18T09:50:33.425Z,331.88
2019-02-18T09:51:33.424Z,331.88
2019-02-18T09:52:33.396Z,331.88
2019-02-18T09:53:33.478Z,320.62
2019-02-18T09:54:33.372Z,315.00
2019-02-18T09:55:33.362Z,309.38
2019-02-18T09:56:33.350Z,309.38
2019-02-18T09:57:33.341Z,309.38
2019-02-18T09:58:33.352Z,309.38
2019-02-18T09:59:33.323Z,309.38
2019-02-18T10:00:33.426Z,309.38
2019-02-18T10:01:33.299Z,309.38
2019-02-18T10:02:33.282Z,168.75
2019-02-18T10:03:33.297Z,281.25
2019-02-18T10:04:33.263Z,230.62
2019-02-18T10:05:33.249Z,185.62
2019-02-18T10:06:33.239Z,180.00
2019-02-18T10:07:33.227Z,174.38
2019-02-18T10:08:33.240Z,174.38
2019-02-18T10:09:33.206Z,168.75
2019-02-18T10:10:33.233Z,168.75
2019-02-18T10:11:33.190Z,163.12
2019-02-18T10:12:33.180Z,163.12
2019-02-18T10:13:33.184Z,163.12
2019-02-18T10:14:33.155Z,157.50
2019-02-18T10:15:33.139Z,157.50
2019-02-18T10:16:33.129Z,163.12
2019-02-18T10:17:33.121Z,151.88
2019-02-18T10:18:33.130Z,151.88
2019-02-18T10:19:33.100Z,151.88
2019-02-18T10:20:33.088Z,146.25
2019-02-18T10:21:33.074Z,146.25
2019-02-18T10:22:33.085Z,146.25
2019-02-18T10:23:33.078Z,140.62
2019-02-18T10:24:33.048Z,140.62
2019-02-18T10:25:33.038Z,140.62
2019-02-18T10:26:33.021Z,140.62
2019-02-18T10:27:33.087Z,135.00
2019-02-18T10:28:33.023Z,135.00
2019-02-18T10:29:32.995Z,135.00
2019-02-18T10:30:32.979Z,135.00
2019-02-18T10:31:32.970Z,135.00
2019-02-18T10:32:32.957Z,135.00
2019-02-18T10:33:32.976Z,135.00
2019-02-18T10:34:32.941Z,135.00
2019-02-18T10:35:32.930Z,135.00
2019-02-18T10:36:32.911Z,135.00
2019-02-18T10:37:32.899Z,135.00
2019-02-18T10:38:32.928Z,140.62
2019-02-18T10:39:32.875Z,140.62
2019-02-18T10:40:32.864Z,140.62
2019-02-18T10:41:32.856Z,140.62
2019-02-18T10:42:32.842Z,140.62
2019-02-18T10:43:32.938Z,140.62
2019-02-18T10:44:32.842Z,140.62
2019-02-18T10:45:32.809Z,140.62
2019-02-18T10:46:32.799Z,140.62
2019-02-18T10:47:32.786Z,140.62
2019-02-18T10:48:32.774Z,140.62
2019-02-18T10:49:32.787Z,140.62
2019-02-18T10:50:32.753Z,140.62
2019-02-18T10:51:32.744Z,140.62
2019-02-18T10:52:32.729Z,146.25
2019-02-18T10:53:32.720Z,146.25
2019-02-18T10:54:32.730Z,146.25
2019-02-18T10:55:32.697Z,146.25
2019-02-18T10:56:32.695Z,146.25
2019-02-18T10:57:32.673Z,146.25
2019-02-18T10:58:32.662Z,146.25
2019-02-18T10:59:32.675Z,146.25
2019-02-18T11:00:32.641Z,146.25
2019-02-18T11:01:32.631Z,146.25
2019-02-18T11:02:32.618Z,146.25
2019-02-18T11:03:32.611Z,146.25
2019-02-18T11:04:32.627Z,146.25
2019-02-18T11:05:32.588Z,146.25
2019-02-18T11:06:32.574Z,146.25
2019-02-18T11:07:32.563Z,146.25
2019-02-18T11:08:32.552Z,140.62
2019-02-18T11:09:32.590Z,135.00
2019-02-18T11:10:32.534Z,123.75
2019-02-18T11:11:32.519Z,106.88
2019-02-18T11:12:32.511Z,101.25
2019-02-18T11:13:32.496Z,95.62
2019-02-18T11:14:32.493Z,84.38
2019-02-18T11:15:32.496Z,84.38
2019-02-18T11:16:32.466Z,67.50
2019-02-18T11:17:38.961Z,67.50
2019-02-18T11:18:32.445Z,56.25
2019-02-18T11:19:32.431Z,50.62
2019-02-18T11:20:32.443Z,39.38
2019-02-18T11:21:32.407Z,33.75
2019-02-18T11:22:32.394Z,33.75
2019-02-18T11:23:32.384Z,28.12
2019-02-18T11:24:32.430Z,28.12
2019-02-18T11:25:32.387Z,28.12
2019-02-18T11:26:32.352Z,33.75
2019-02-18T11:27:32.341Z,33.75
2019-02-18T11:28:32.333Z,33.75
2019-02-18T11:29:32.320Z,39.38
2019-02-18T11:30:32.331Z,50.62
2019-02-18T11:31:32.294Z,67.50
2019-02-18T11:32:32.291Z,78.75
2019-02-18T11:33:32.271Z,90.00
2019-02-18T11:34:32.260Z,95.62
2019-02-18T11:35:32.274Z,106.88
2019-02-18T11:36:32.238Z,106.88
2019-02-18T11:37:32.229Z,112.50
2019-02-18T11:38:32.215Z,118.12
2019-02-18T11:39:32.202Z,118.12
2019-02-18T11:40:32.350Z,118.12
2019-02-18T11:41:32.182Z,123.75
2019-02-18T11:42:32.171Z,123.75
2019-02-18T11:43:32.158Z,123.75
2019-02-18T11:44:32.149Z,123.75
2019-02-18T11:45:34.674Z,123.75
2019-02-18T11:46:32.128Z,123.75
2019-02-18T11:47:32.114Z,123.75
2019-02-18T11:48:32.103Z,123.75
2019-02-18T11:49:32.091Z,123.75
2019-02-18T11:50:32.107Z,123.75
2019-02-18T11:51:32.068Z,123.75
2019-02-18T11:52:32.058Z,123.75
2019-02-18T11:53:32.048Z,123.75
2019-02-18T11:54:32.037Z,123.75
2019-02-18T11:55:32.060Z,118.12
2019-02-18T11:56:32.016Z,118.12
2019-02-18T11:57:32.001Z,118.12
2019-02-18T11:58:31.989Z,118.12
2019-02-18T11:59:31.981Z,118.12
2019-02-18T12:00:32.010Z,118.12
2019-02-18T12:01:31.999Z,118.12
2019-02-18T12:02:31.950Z,118.12
2019-02-18T12:03:31.934Z,112.50
2019-02-18T12:04:31.924Z,112.50
2019-02-18T12:05:31.911Z,112.50
2019-02-18T12:06:31.923Z,112.50
2019-02-18T12:07:31.891Z,112.50
2019-02-18T12:08:31.884Z,112.50
2019-02-18T12:09:31.871Z,112.50
2019-02-18T12:10:31.859Z,112.50
2019-02-18T12:11:38.019Z,112.50
2019-02-18T12:12:31.835Z,112.50
2019-02-18T12:13:31.824Z,106.88
2019-02-18T12:14:31.814Z,106.88
2019-02-18T12:15:31.813Z,106.88
2019-02-18T12:16:31.819Z,106.88
2019-02-18T12:17:31.779Z,106.88
2019-02-18T12:18:31.769Z,106.88
2019-02-18T12:19:31.759Z,106.88
2019-02-18T12:20:31.757Z,101.25
2019-02-18T12:21:31.759Z,101.25
2019-02-18T12:22:31.726Z,101.25
2019-02-18T12:23:31.719Z,101.25
2019-02-18T12:24:31.706Z,101.25
2019-02-18T12:25:31.692Z,95.62
2019-02-18T12:26:31.706Z,95.62
2019-02-18T12:27:32.255Z,95.62
2019-02-18T12:28:31.663Z,95.62
2019-02-18T12:29:31.651Z,90.00
2019-02-18T12:30:32.521Z,90.00
2019-02-18T12:31:31.671Z,90.00
2019-02-18T12:32:31.619Z,90.00
2019-02-18T12:33:31.608Z,90.00
2019-02-18T12:34:31.596Z,84.38
2019-02-18T12:35:32.361Z,84.38
2019-02-18T12:36:31.596Z,84.38
2019-02-18T12:37:31.564Z,84.38
2019-02-18T12:38:31.558Z,84.38
2019-02-18T12:39:31.543Z,84.38
2019-02-18T12:40:31.531Z,78.75
2019-02-18T12:41:31.557Z,78.75
2019-02-18T12:42:31.543Z,78.75
2019-02-18T12:43:31.502Z,78.75
2019-02-18T12:44:31.489Z,78.75
2019-02-18T12:45:31.477Z,78.75
2019-02-18T12:46:31.469Z,73.12
2019-02-18T12:47:31.479Z,73.12
2019-02-18T12:48:31.449Z,73.12
2019-02-18T12:49:31.437Z,73.12
2019-02-18T12:50:31.425Z,67.50
2019-02-18T12:51:31.414Z,67.50
2019-02-18T12:52:31.429Z,67.50
2019-02-18T12:53:31.391Z,67.50
2019-02-18T12:54:31.379Z,61.88
2019-02-18T12:55:31.714Z,61.88
2019-02-18T12:56:31.360Z,61.88
2019-02-18T12:57:31.377Z,56.25
2019-02-18T12:58:31.337Z,56.25
2019-02-18T12:59:31.602Z,56.25
2019-02-18T13:00:31.313Z,56.25
2019-02-18T13:01:31.304Z,56.25
2019-02-18T13:02:31.315Z,56.25